Time;durP1;ratioP1;P1;durP2;ratioP2;P2;SDS_P1;SDS_P2;PMS_P1;PMS_P2;Temp;Humidity;BMP_temperature;BMP_pressure;BME280_temperature;BME280_humidity;BME280_pressure;Samples;Min_cycle;Max_cycle;Signal;HPM_P1;HPM_P2
2021/05/29 00:00:34;;;;;;;11.00;7.87;;;;;10.70;101855.00;;;;10470623;28;20197;-76
2021/05/29 00:05:36;;;;;;;9.73;7.17;;;;;10.60;101854.00;;;;10501716;28;20217;-76
2021/05/29 00:10:41;;;;;;;11.97;7.80;;;;;10.60;101850.00;;;;10503889;28;20201;-76
2021/05/29 00:15:43;;;;;;;13.93;8.20;;;;;10.70;101853.00;;;;10520257;28;20246;-76
2021/05/29 00:20:45;;;;;;;12.10;7.73;;;;;10.70;101852.00;;;;10503246;28;20655;-76
2021/05/29 00:25:47;;;;;;;11.77;7.80;;;;;10.80;101838.00;;;;10446610;28;20637;-76
2021/05/29 00:30:49;;;;;;;10.70;7.53;;;;;10.80;101836.00;;;;10421653;28;20259;-76
2021/05/29 00:35:51;;;;;;;11.63;7.97;;;;;10.70;101837.00;;;;10491963;28;20746;-76
2021/05/29 00:40:53;;;;;;;12.17;7.93;;;;;10.70;101828.00;;;;10458851;28;20205;-76
2021/05/29 00:45:55;;;;;;;11.70;7.83;;;;;10.70;101835.00;;;;10473169;28;20263;-76
2021/05/29 00:51:00;;;;;;;9.67;7.83;;;;;10.80;101838.00;;;;10434748;28;20255;-76
2021/05/29 00:56:07;;;;;;;14.73;8.77;;;;;10.80;101827.00;;;;10530006;28;20231;-76
2021/05/29 01:01:09;;;;;;;11.80;8.33;;;;;10.90;101841.00;;;;10482557;28;20193;-76
2021/05/29 01:06:11;;;;;;;13.30;8.90;;;;;10.90;101839.00;;;;10480945;28;20683;-76
2021/05/29 01:11:13;;;;;;;11.67;8.17;;;;;10.90;101839.00;;;;10459728;28;21029;-77
2021/05/29 01:16:41;;;;;;;14.80;9.43;;;;;10.90;101846.00;;;;10482222;28;20224;-76
2021/05/29 01:21:42;;;;;;;11.07;8.37;;;;;10.90;101851.00;;;;10514758;28;20207;-76
2021/05/29 01:26:45;;;;;;;16.40;9.50;;;;;10.80;101850.00;;;;10477968;28;20226;-76
2021/05/29 01:31:51;;;;;;;11.17;8.23;;;;;10.80;101858.00;;;;10498346;28;20297;-76
2021/05/29 01:36:56;;;;;;;13.27;9.13;;;;;10.90;101857.00;;;;10515424;28;20665;-76
2021/05/29 01:41:59;;;;;;;10.13;8.17;;;;;10.90;101857.00;;;;10481711;28;20269;-76
2021/05/29 01:47:01;;;;;;;12.00;8.93;;;;;10.90;101863.00;;;;10477038;28;20634;-76
2021/05/29 01:52:04;;;;;;;12.00;8.83;;;;;10.90;101871.00;;;;10498034;28;20188;-76
2021/05/29 01:57:06;;;;;;;10.67;8.47;;;;;10.90;101877.00;;;;10453456;28;20228;-76
2021/05/29 02:02:08;;;;;;;9.70;7.47;;;;;10.90;101880.00;;;;10459168;28;20254;-76
2021/05/29 02:07:10;;;;;;;12.63;8.67;;;;;10.90;101890.00;;;;10457224;28;20217;-76
2021/05/29 02:12:12;;;;;;;10.40;8.27;;;;;10.70;101889.00;;;;10459457;28;20251;-76
2021/05/29 02:17:14;;;;;;;13.00;9.23;;;;;10.50;101891.00;;;;10490544;28;20227;-76
2021/05/29 02:22:16;;;;;;;11.77;8.37;;;;;10.40;101894.00;;;;10449182;28;20196;-76
2021/05/29 02:27:18;;;;;;;10.53;9.10;;;;;10.20;101884.00;;;;10481086;28;20263;-76
2021/05/29 02:32:21;;;;;;;14.87;9.07;;;;;10.00;101881.00;;;;10483169;28;20224;-76
2021/05/29 02:37:23;;;;;;;11.83;8.87;;;;;9.90;101885.00;;;;10523591;28;20189;-76
2021/05/29 02:42:25;;;;;;;11.60;8.90;;;;;9.80;101893.00;;;;10490796;28;20250;-76
2021/05/29 02:47:26;;;;;;;11.93;9.10;;;;;9.60;101883.00;;;;10506812;28;20307;-76
2021/05/29 02:52:28;;;;;;;13.23;9.20;;;;;9.60;101888.00;;;;10486671;28;20205;-76
2021/05/29 02:57:30;;;;;;;15.13;10.13;;;;;9.50;101890.00;;;;10506712;28;20242;-76
2021/05/29 03:02:32;;;;;;;13.13;9.53;;;;;9.40;101889.00;;;;10473527;28;20220;-76
2021/05/29 03:07:34;;;;;;;13.10;9.57;;;;;9.30;101885.00;;;;10506383;28;20221;-76
2021/05/29 03:12:37;;;;;;;14.47;10.70;;;;;9.20;101890.00;;;;10520708;28;20217;-76
2021/05/29 03:17:41;;;;;;;14.00;10.77;;;;;9.10;101878.00;;;;10489463;28;20561;-76
2021/05/29 03:22:43;;;;;;;14.03;10.10;;;;;9.00;101890.00;;;;10505716;28;20201;-76
2021/05/29 03:27:47;;;;;;;12.40;10.17;;;;;8.90;101883.00;;;;10503632;28;20582;-76
2021/05/29 03:32:50;;;;;;;18.00;11.47;;;;;8.70;101886.00;;;;10498370;28;20696;-76
2021/05/29 03:37:52;;;;;;;14.70;10.90;;;;;8.70;101888.00;;;;10497628;28;20201;-76
2021/05/29 03:42:54;;;;;;;15.87;12.43;;;;;8.70;101892.00;;;;10504242;28;20193;-76
2021/05/29 03:47:56;;;;;;;15.87;11.40;;;;;8.70;101897.00;;;;10505225;28;20299;-76
2021/05/29 03:52:58;;;;;;;15.73;11.77;;;;;8.80;101909.00;;;;10534436;28;20689;-76
2021/05/29 03:58:01;;;;;;;14.53;10.33;;;;;8.90;101905.00;;;;10465756;28;20252;-76
2021/05/29 04:03:03;;;;;;;12.80;10.33;;;;;9.00;101914.00;;;;10462019;28;20598;-76
2021/05/29 04:08:06;;;;;;;13.73;10.03;;;;;9.00;101910.00;;;;10446311;28;20288;-76
2021/05/29 04:13:08;;;;;;;10.37;9.17;;;;;9.20;101919.00;;;;10459754;28;20197;-76
2021/05/29 04:18:09;;;;;;;14.37;9.33;;;;;9.40;101916.00;;;;10425743;28;20202;-76
2021/05/29 04:23:11;;;;;;;11.00;9.07;;;;;9.50;101925.00;;;;10459411;28;20247;-76
2021/05/29 04:28:13;;;;;;;12.13;9.73;;;;;9.60;101927.00;;;;10515992;28;20277;-76
2021/05/29 04:33:15;;;;;;;12.07;9.83;;;;;9.70;101936.00;;;;10516029;28;20220;-76
2021/05/29 04:38:17;;;;;;;12.77;9.97;;;;;9.80;101944.00;;;;10482289;28;20208;-76
2021/05/29 04:43:20;;;;;;;14.13;9.70;;;;;9.90;101941.00;;;;10500440;28;20921;-76
2021/05/29 04:48:22;;;;;;;13.27;9.90;;;;;10.00;101940.00;;;;10500227;28;20239;-76
2021/05/29 04:53:25;;;;;;;12.17;10.13;;;;;10.50;101948.00;;;;10499314;28;20254;-76
2021/05/29 04:58:28;;;;;;;13.00;9.60;;;;;10.80;101954.00;;;;10473519;28;20198;-76
2021/05/29 05:03:30;;;;;;;12.27;9.77;;;;;11.00;101954.00;;;;10461081;28;20206;-76
2021/05/29 05:08:32;;;;;;;11.97;9.73;;;;;11.30;101959.00;;;;10443929;28;20231;-76
2021/05/29 05:13:34;;;;;;;14.80;9.87;;;;;11.60;101969.00;;;;10443508;28;20198;-76
2021/05/29 05:18:36;;;;;;;12.03;8.97;;;;;12.00;101972.00;;;;10474051;28;20280;-76
2021/05/29 05:23:38;;;;;;;15.03;9.60;;;;;12.30;101975.00;;;;10465199;28;20201;-76
2021/05/29 05:28:40;;;;;;;13.63;9.50;;;;;12.70;101978.00;;;;10485296;28;20220;-76
2021/05/29 05:33:45;;;;;;;11.77;9.73;;;;;13.20;101975.00;;;;10500071;28;20221;-76
2021/05/29 05:38:47;;;;;;;10.37;9.37;;;;;13.90;101972.00;;;;10440354;28;20206;-77
2021/05/29 05:43:49;;;;;;;10.17;8.90;;;;;14.50;101975.00;;;;10491225;28;20256;-76
2021/05/29 05:48:51;;;;;;;11.40;9.07;;;;;15.00;101970.00;;;;10531882;28;20225;-76
2021/05/29 05:53:53;;;;;;;9.60;8.60;;;;;15.30;101966.00;;;;10516833;28;20205;-76
2021/05/29 05:58:57;;;;;;;11.07;8.80;;;;;15.70;101969.00;;;;10462187;28;20208;-76
2021/05/29 06:03:59;;;;;;;9.37;8.43;;;;;16.10;101971.00;;;;10488296;28;20782;-76
2021/05/29 06:09:01;;;;;;;9.87;8.67;;;;;16.60;101958.00;;;;10447718;28;20233;-76
2021/05/29 06:24:25;;;;;;;9.10;7.55;;;;;17.60;101950.00;;;;10489370;28;20232;-76
2021/05/29 06:29:27;;;;;;;9.75;8.70;;;;;17.80;101952.00;;;;10506779;28;20277;-76
2021/05/29 06:34:29;;;;;;;9.10;8.05;;;;;18.10;101956.00;;;;10498687;28;20274;-76
2021/05/29 06:39:31;;;;;;;11.57;9.02;;;;;18.50;101956.00;;;;10480390;28;20209;-76
2021/05/29 06:44:33;;;;;;;9.90;8.38;;;;;18.50;101964.00;;;;10498479;28;20229;-77
2021/05/29 06:49:36;;;;;;;13.52;8.55;;;;;18.70;101963.00;;;;10466104;28;20222;-76
2021/05/29 06:54:53;;;;;;;13.10;9.13;;;;;18.90;101968.00;;;;10457346;28;20251;-76
2021/05/29 06:59:55;;;;;;;9.50;8.52;;;;;19.20;101975.00;;;;10473531;28;20270;-76
2021/05/29 07:04:57;;;;;;;10.82;8.43;;;;;19.60;101982.00;;;;10456826;28;20205;-76
2021/05/29 07:09:59;;;;;;;10.15;7.93;;;;;20.00;101986.00;;;;10488574;28;20262;-76
2021/05/29 07:15:04;;;;;;;8.82;7.50;;;;;20.30;101991.00;;;;10466902;28;20244;-77
2021/05/29 07:20:06;;;;;;;11.15;7.82;;;;;20.60;101995.00;;;;10448915;28;20210;-77
2021/05/29 07:25:09;;;;;;;8.20;7.40;;;;;20.70;101995.00;;;;10510184;28;20213;-76
2021/05/29 07:30:11;;;;;;;10.65;8.15;;;;;21.00;102000.00;;;;10449143;28;20231;-77
2021/05/29 07:35:13;;;;;;;7.43;6.60;;;;;21.50;101995.00;;;;10453583;28;20256;-77
2021/05/29 07:40:16;;;;;;;8.88;6.70;;;;;21.80;101988.00;;;;10461189;28;20547;-76
2021/05/29 07:45:18;;;;;;;7.00;6.25;;;;;22.00;102001.00;;;;10494968;28;20664;-76
2021/05/29 07:50:20;;;;;;;7.22;6.53;;;;;22.10;102004.00;;;;10536539;28;20197;-77
2021/05/29 07:55:22;;;;;;;6.25;5.63;;;;;22.50;101993.00;;;;10516990;28;20605;-76
2021/05/29 08:00:26;;;;;;;6.95;5.43;;;;;22.80;102005.00;;;;10519088;28;20242;-76
2021/05/29 08:05:28;;;;;;;7.55;6.40;;;;;22.90;101998.00;;;;10518658;28;20208;-77
2021/05/29 08:10:30;;;;;;;8.80;5.40;;;;;22.90;102003.00;;;;10456222;28;20232;-77
2021/05/29 08:15:32;;;;;;;6.75;5.30;;;;;23.30;102009.00;;;;10520258;28;20196;-77
2021/05/29 08:20:38;;;;;;;8.75;4.70;;;;;24.10;102013.00;;;;10482951;28;20292;-76
2021/05/29 08:25:40;;;;;;;4.95;4.45;;;;;24.20;102013.00;;;;10498890;28;20290;-77
2021/05/29 08:30:43;;;;;;;7.00;4.50;;;;;24.40;102017.00;;;;10468402;28;20201;-77
2021/05/29 08:35:45;;;;;;;6.15;3.95;;;;;24.40;102015.00;;;;10519641;28;20223;-77
2021/05/29 08:40:47;;;;;;;6.65;5.25;;;;;24.60;102027.00;;;;10502111;28;20671;-76
2021/05/29 08:45:49;;;;;;;5.72;4.40;;;;;25.10;102017.00;;;;10494050;28;20221;-77
2021/05/29 08:56:13;;;;;;;6.70;3.95;;;;;25.20;102027.00;;;;10511232;28;20207;-75
2021/05/29 09:01:16;;;;;;;6.57;4.22;;;;;25.10;102035.00;;;;10463524;28;20659;-75
2021/05/29 09:06:30;;;;;;;4.30;3.40;;;;;25.20;102023.00;;;;10476773;28;20221;-74
2021/05/29 09:11:52;;;;;;;4.63;4.10;;;;;25.70;102030.00;;;;10503047;28;20293;-77
2021/05/29 09:17:15;;;;;;;4.60;3.70;;;;;26.20;102022.00;;;;10458696;28;20217;-77
2021/05/29 09:22:19;;;;;;;6.50;3.55;;;;;26.00;102028.00;;;;10453222;28;20258;-77
2021/05/29 09:27:21;;;;;;;4.72;3.38;;;;;26.20;102029.00;;;;10501090;28;20232;-77
2021/05/29 09:32:23;;;;;;;4.78;3.20;;;;;25.70;102049.00;;;;10516146;28;20656;-76
2021/05/29 09:37:27;;;;;;;5.15;3.10;;;;;24.40;102034.00;;;;10493387;28;20446;-77
2021/05/29 09:42:35;;;;;;;3.88;2.88;;;;;25.60;102049.00;;;;10464538;28;20209;-77
2021/05/29 09:47:37;;;;;;;5.07;2.38;;;;;26.00;102043.00;;;;10490656;28;20239;-77
2021/05/29 09:52:40;;;;;;;4.30;2.17;;;;;24.10;102048.00;;;;10475606;28;20200;-77
2021/05/29 09:57:56;;;;;;;2.25;2.05;;;;;24.20;102034.00;;;;10465487;28;20213;-76
2021/05/29 10:02:59;;;;;;;2.60;2.40;;;;;25.60;102036.00;;;;10532326;28;20670;-77
2021/05/29 10:08:02;;;;;;;2.20;1.63;;;;;26.00;102036.00;;;;10500534;28;20231;-77
2021/05/29 10:13:04;;;;;;;4.28;2.10;;;;;26.20;102036.00;;;;10513766;28;20301;-77
2021/05/29 10:18:09;;;;;;;2.70;2.33;;;;;26.90;102040.00;;;;10496231;28;20882;-77
2021/05/29 10:23:12;;;;;;;3.03;2.00;;;;;27.00;102038.00;;;;10500644;28;20651;-77
2021/05/29 10:28:14;;;;;;;3.38;2.25;;;;;27.40;102039.00;;;;10516995;28;20260;-77
2021/05/29 10:33:20;;;;;;;3.13;1.90;;;;;27.60;102039.00;;;;10500276;28;20236;-76
2021/05/29 10:38:23;;;;;;;2.85;2.08;;;;;27.60;102027.00;;;;10496743;28;20225;-77
2021/05/29 10:43:35;;;;;;;2.50;2.00;;;;;28.20;102034.00;;;;10526748;28;20204;-77
2021/05/29 10:48:49;;;;;;;1.80;1.60;;;;;28.60;102032.00;;;;10452139;28;20241;-77
2021/05/29 10:53:57;;;;;;;1.70;1.60;;;;;28.90;102036.00;;;;10440664;28;20677;-77
2021/05/29 10:59:19;;;;;;;2.20;2.00;;;;;28.90;102030.00;;;;10483735;28;20202;-77
2021/05/29 11:04:22;;;;;;;3.97;1.90;;;;;29.00;102021.00;;;;10497692;28;20204;-77
2021/05/29 11:09:24;;;;;;;2.55;2.10;;;;;28.30;102033.00;;;;10481917;28;20316;-77
2021/05/29 11:14:30;;;;;;;3.58;2.10;;;;;26.20;102022.00;;;;10483227;28;20205;-76
2021/05/29 11:19:38;;;;;;;3.55;2.55;;;;;27.70;102026.00;;;;10505207;28;20211;-77
2021/05/29 11:24:49;;;;;;;3.50;2.38;;;;;27.80;102031.00;;;;10489299;28;20217;-76
2021/05/29 11:30:02;;;;;;;2.55;2.13;;;;;26.30;102021.00;;;;10467243;28;20214;-76
2021/05/29 11:35:05;;;;;;;3.80;2.17;;;;;27.30;102013.00;;;;10512790;28;20240;-76
2021/05/29 11:40:07;;;;;;;2.33;2.08;;;;;28.30;102018.00;;;;10464821;28;20251;-76
2021/05/29 11:45:16;;;;;;;2.90;2.40;;;;;27.50;101997.00;;;;10489264;28;20236;-77
2021/05/29 11:50:19;;;;;;;3.28;2.60;;;;;28.50;102009.00;;;;10435524;28;20222;-77
2021/05/29 11:55:21;;;;;;;3.90;3.10;;;;;28.80;102003.00;;;;10473900;28;20216;-77
2021/05/29 12:00:23;;;;;;;3.58;2.97;;;;;28.90;102010.00;;;;10491101;28;20206;-77
2021/05/29 12:05:37;;;;;;;4.97;2.85;;;;;29.40;102010.00;;;;10493566;28;20337;-77
2021/05/29 12:10:47;;;;;;;4.68;2.67;;;;;29.60;102002.00;;;;10518038;28;20233;-77
2021/05/29 12:15:59;;;;;;;4.15;2.33;;;;;29.80;102000.00;;;;10490924;28;20808;-77
2021/05/29 12:21:02;;;;;;;4.30;2.60;;;;;30.10;102012.00;;;;10469937;28;20196;-77
2021/05/29 12:26:04;;;;;;;2.63;2.42;;;;;30.20;102004.00;;;;10500372;28;20774;-77
2021/05/29 12:31:06;;;;;;;5.95;3.97;;;;;29.90;102013.00;;;;10461343;28;20231;-77
2021/05/29 12:36:12;;;;;;;6.07;3.20;;;;;27.80;102014.00;;;;10497228;28;20664;-77
2021/05/29 12:41:15;;;;;;;4.90;3.80;;;;;28.40;102008.00;;;;10494733;28;20200;-76
2021/05/29 12:46:24;;;;;;;3.80;3.40;;;;;29.10;102001.00;;;;10476735;28;20214;-77
2021/05/29 12:51:43;;;;;;;4.03;3.58;;;;;29.50;102014.00;;;;10485604;28;20655;-76
2021/05/29 12:56:56;;;;;;;3.00;2.70;;;;;30.00;102011.00;;;;10482414;28;20725;-77
2021/05/29 13:07:34;;;;;;;3.17;2.63;;;;;27.30;102017.00;;;;10497758;28;20225;-76
2021/05/29 13:12:36;;;;;;;2.97;2.33;;;;;29.60;102009.00;;;;10500948;28;20678;-76
2021/05/29 13:17:38;;;;;;;2.05;1.95;;;;;30.40;102003.00;;;;10488003;28;20599;-77
2021/05/29 13:22:41;;;;;;;2.38;1.30;;;;;30.40;102000.00;;;;10505828;28;20189;-77
2021/05/29 13:27:51;;;;;;;1.73;1.63;;;;;28.10;102024.00;;;;10467695;28;20221;-77
2021/05/29 13:33:11;;;;;;;2.78;1.90;;;;;26.10;102008.00;;;;10515106;28;20247;-77
2021/05/29 13:38:13;;;;;;;1.88;1.20;;;;;31.70;102001.00;;;;10493292;28;20212;-76
2021/05/29 13:43:15;;;;;;;2.25;1.80;;;;;34.50;102003.00;;;;10499462;28;20259;-77
2021/05/29 13:48:17;;;;;;;4.13;1.45;;;;;33.80;102003.00;;;;10490396;28;20224;-76
2021/05/29 13:53:19;;;;;;;2.70;1.88;;;;;31.10;102024.00;;;;10498040;28;20594;-77
2021/05/29 13:58:20;;;;;;;2.00;1.88;;;;;27.10;102020.00;;;;10472874;28;20439;-76
2021/05/29 14:03:22;;;;;;;3.83;2.28;;;;;27.70;102000.00;;;;10490351;28;20251;-75
2021/05/29 14:08:25;;;;;;;2.65;1.95;;;;;33.70;102005.00;;;;10497092;28;20725;-76
2021/05/29 14:13:27;;;;;;;1.73;1.63;;;;;35.40;102009.00;;;;10479423;28;20291;-76
2021/05/29 14:18:29;;;;;;;1.65;1.55;;;;;36.50;102009.00;;;;10474584;28;20228;-76
2021/05/29 14:23:30;;;;;;;2.95;1.80;;;;;37.70;102001.00;;;;10444060;28;20205;-76
2021/05/29 14:28:33;;;;;;;4.80;2.13;;;;;34.40;102001.00;;;;10524818;28;20216;-76
2021/05/29 14:33:38;;;;;;;5.78;2.22;;;;;37.20;101999.00;;;;10503107;28;20785;-76
2021/05/29 14:38:40;;;;;;;1.65;1.52;;;;;37.50;101995.00;;;;10470834;28;20184;-76
2021/05/29 14:43:42;;;;;;;3.75;1.60;;;;;37.70;102005.00;;;;10492559;28;20202;-75
2021/05/29 14:48:47;;;;;;;2.08;1.88;;;;;38.30;101997.00;;;;10512786;28;20282;-76
2021/05/29 14:53:57;;;;;;;3.45;1.85;;;;;38.70;102004.00;;;;10480499;28;20271;-76
2021/05/29 14:58:59;;;;;;;2.33;2.00;;;;;38.60;101997.00;;;;10488360;28;20201;-76
2021/05/29 15:04:03;;;;;;;2.80;1.73;;;;;35.10;102023.00;;;;10457644;28;20279;-76
2021/05/29 15:09:05;;;;;;;1.98;1.77;;;;;28.60;102024.00;;;;10493813;28;20710;-76
2021/05/29 15:14:07;;;;;;;3.95;1.70;;;;;26.50;102022.00;;;;10517083;28;20209;-76
2021/05/29 15:19:09;;;;;;;2.70;2.15;;;;;25.50;102012.00;;;;10505334;28;20196;-76
2021/05/29 15:24:16;;;;;;;4.63;2.10;;;;;28.60;101996.00;;;;10527554;28;20217;-74
2021/05/29 15:29:20;;;;;;;3.70;2.50;;;;;34.90;101990.00;;;;10521969;28;20299;-74
2021/05/29 15:34:22;;;;;;;2.85;2.00;;;;;36.50;102001.00;;;;10489092;28;20259;-73
2021/05/29 15:39:24;;;;;;;3.78;2.25;;;;;36.80;102000.00;;;;10459922;28;20205;-74
2021/05/29 15:44:26;;;;;;;3.65;2.20;;;;;36.50;102010.00;;;;10478657;28;20222;-74
2021/05/29 15:49:27;;;;;;;3.60;2.22;;;;;32.90;101995.00;;;;10487110;28;20225;-74
2021/05/29 15:54:29;;;;;;;2.85;2.47;;;;;29.90;101985.00;;;;10495392;28;20196;-74
2021/05/29 15:59:31;;;;;;;2.35;2.03;;;;;30.50;101982.00;;;;10484720;28;20204;-74
2021/05/29 16:04:35;;;;;;;2.95;2.08;;;;;28.40;102000.00;;;;10485187;28;20549;-75
2021/05/29 16:09:37;;;;;;;5.47;4.00;;;;;25.70;101998.00;;;;10458231;28;20312;-74
2021/05/29 16:14:38;;;;;;;4.85;4.07;;;;;24.60;102002.00;;;;10461750;28;20218;-75
2021/05/29 16:19:40;;;;;;;4.10;3.72;;;;;23.90;101992.00;;;;10504646;28;20200;-75
2021/05/29 16:24:42;;;;;;;4.63;2.28;;;;;23.60;101996.00;;;;10491129;28;20217;-75
2021/05/29 16:29:46;;;;;;;4.80;2.22;;;;;23.20;101989.00;;;;10497129;28;20248;-75
2021/05/29 16:34:47;;;;;;;2.38;1.90;;;;;23.10;101996.00;;;;10493084;28;20226;-75
2021/05/29 16:39:49;;;;;;;1.92;1.60;;;;;23.00;102000.00;;;;10471649;28;20666;-75
2021/05/29 16:44:51;;;;;;;1.98;1.80;;;;;22.90;101991.00;;;;10504480;28;20231;-75
2021/05/29 16:49:53;;;;;;;2.58;1.63;;;;;22.90;101985.00;;;;10490824;28;20270;-74
2021/05/29 16:54:55;;;;;;;3.35;1.95;;;;;22.80;101988.00;;;;10514923;28;20193;-76
2021/05/29 16:59:59;;;;;;;2.85;1.83;;;;;22.80;101983.00;;;;10532897;28;21025;-76
2021/05/29 17:05:02;;;;;;;2.45;1.85;;;;;22.60;101991.00;;;;10487106;28;20283;-76
2021/05/29 17:10:04;;;;;;;3.25;2.20;;;;;22.50;101986.00;;;;10485449;28;20197;-76
2021/05/29 17:15:08;;;;;;;4.10;2.45;;;;;22.30;101990.00;;;;10520120;28;20221;-76
2021/05/29 17:20:11;;;;;;;6.13;1.80;;;;;22.00;101997.00;;;;10481121;28;20197;-76
2021/05/29 17:25:13;;;;;;;5.55;2.28;;;;;21.90;101986.00;;;;10518908;28;20189;-76
2021/05/29 17:30:16;;;;;;;2.83;2.50;;;;;21.70;101994.00;;;;10514525;28;20597;-76
2021/05/29 17:35:18;;;;;;;3.22;2.65;;;;;21.50;102007.00;;;;10537032;28;20248;-76
2021/05/29 17:40:20;;;;;;;2.60;2.40;;;;;21.30;102004.00;;;;10507923;28;20192;-76
2021/05/29 17:45:22;;;;;;;4.28;2.92;;;;;20.90;101992.00;;;;10502447;28;20204;-76
2021/05/29 17:50:24;;;;;;;5.55;3.28;;;;;20.80;102006.00;;;;10527627;28;20196;-76
2021/05/29 17:55:26;;;;;;;4.63;3.50;;;;;20.70;102011.00;;;;10482349;28;20247;-76
2021/05/29 18:00:29;;;;;;;3.92;3.17;;;;;20.60;102006.00;;;;10518661;28;20697;-76
2021/05/29 18:05:30;;;;;;;4.93;3.05;;;;;20.50;102015.00;;;;10461995;28;20193;-76
2021/05/29 18:10:32;;;;;;;3.85;3.20;;;;;20.40;102019.00;;;;10465243;28;20267;-76
2021/05/29 18:15:34;;;;;;;4.32;3.60;;;;;20.30;102018.00;;;;10477175;28;20243;-75
2021/05/29 18:20:38;;;;;;;4.95;3.72;;;;;20.20;102014.00;;;;10476252;28;20204;-76
2021/05/29 18:25:40;;;;;;;5.72;3.92;;;;;20.00;102023.00;;;;10481049;28;20201;-76
2021/05/29 18:30:42;;;;;;;4.22;3.75;;;;;19.90;102016.00;;;;10482209;28;20209;-77
2021/05/29 18:35:52;;;;;;;6.82;4.00;;;;;19.70;102024.00;;;;10531586;28;21025;-76
2021/05/29 18:40:54;;;;;;;4.82;3.92;;;;;19.60;102015.00;;;;10497098;28;20780;-76
2021/05/29 18:45:59;;;;;;;5.88;4.57;;;;;19.40;102022.00;;;;10510594;28;20193;-76
2021/05/29 18:51:02;;;;;;;5.80;4.30;;;;;19.10;102021.00;;;;10467448;28;20233;-75
2021/05/29 18:56:04;;;;;;;5.65;4.53;;;;;18.90;102031.00;;;;10494965;28;20246;-75
2021/05/29 19:11:49;;;;;;;8.38;4.78;;;;;20.20;102041.00;;;;10513607;28;20185;-75
2021/05/29 19:16:51;;;;;;;6.28;4.72;;;;;20.40;102044.00;;;;10530474;28;20627;-75
2021/05/29 19:22:01;;;;;;;6.80;5.43;;;;;19.30;102050.00;;;;10536708;28;20226;-75
2021/05/29 19:42:55;;;;;;;7.03;6.23;;;;;17.20;102072.00;;;;10492577;28;20639;-76
2021/05/29 20:02:36;;;;;;;8.00;6.00;;;;;16.90;102085.00;;;;10489312;28;20350;-75
2021/05/29 20:25:35;;;;;;;9.00;6.43;;;;;15.60;102126.00;;;;10497542;28;20197;-75
2021/05/29 20:30:38;;;;;;;8.73;6.80;;;;;15.40;102133.00;;;;10473932;28;20201;-75
2021/05/29 20:35:40;;;;;;;9.77;7.03;;;;;15.30;102129.00;;;;10495113;28;20703;-74
2021/05/29 20:40:41;;;;;;;8.80;7.00;;;;;15.20;102139.00;;;;10490852;28;20659;-74
2021/05/29 20:45:50;;;;;;;9.50;7.90;;;;;15.10;102150.00;;;;10506704;28;20188;-74
2021/05/29 20:51:00;;;;;;;8.57;7.60;;;;;14.90;102145.00;;;;10479273;28;20253;-75
2021/05/29 20:56:04;;;;;;;9.57;7.33;;;;;14.80;102144.00;;;;10511350;28;20196;-74
2021/05/29 21:01:06;;;;;;;9.07;7.60;;;;;14.70;102151.00;;;;10498277;28;20181;-75
2021/05/29 21:06:08;;;;;;;9.77;7.33;;;;;14.60;102158.00;;;;10485704;28;21369;-75
2021/05/29 21:11:11;;;;;;;13.97;7.53;;;;;14.50;102162.00;;;;10496757;28;20265;-75
2021/05/29 21:16:16;;;;;;;10.47;7.30;;;;;14.40;102166.00;;;;10506463;28;20204;-75
2021/05/29 21:21:22;;;;;;;11.03;7.73;;;;;14.30;102170.00;;;;10497734;28;20653;-75
2021/05/29 21:26:24;;;;;;;12.47;7.97;;;;;14.20;102171.00;;;;10473962;28;20242;-75
2021/05/29 21:31:27;;;;;;;12.87;8.50;;;;;14.10;102175.00;;;;10493055;28;20258;-74
2021/05/29 21:36:31;;;;;;;12.33;8.60;;;;;14.00;102184.00;;;;10503267;28;20660;-74
2021/05/29 21:41:34;;;;;;;11.17;8.63;;;;;13.90;102184.00;;;;10492999;28;20216;-74
2021/05/29 21:51:57;;;;;;;13.63;8.70;;;;;13.70;102192.00;;;;10501586;28;20205;-74
2021/05/29 21:57:01;;;;;;;13.40;8.90;;;;;13.60;102195.00;;;;10493009;28;20222;-74
2021/05/29 22:02:04;;;;;;;16.17;8.70;;;;;13.60;102196.00;;;;10476967;28;20599;-74
2021/05/29 22:07:07;;;;;;;13.47;9.30;;;;;13.50;102202.00;;;;10488308;28;20201;-74
2021/05/29 22:12:22;;;;;;;9.90;7.77;;;;;13.40;102193.00;;;;10498222;28;20210;-74
2021/05/29 22:33:20;;;;;;;15.00;8.73;;;;;12.90;102195.00;;;;10516168;28;20228;-75
2021/05/29 22:38:24;;;;;;;10.87;8.77;;;;;12.80;102206.00;;;;10489809;28;20185;-75
2021/05/29 22:43:26;;;;;;;15.80;10.23;;;;;12.70;102210.00;;;;10507013;28;20318;-75
2021/05/29 22:48:27;;;;;;;17.10;10.03;;;;;12.60;102217.00;;;;10506747;28;20258;-75
2021/05/29 22:53:29;;;;;;;16.13;9.90;;;;;12.50;102214.00;;;;10501160;28;20220;-75
2021/05/29 22:58:31;;;;;;;12.47;10.03;;;;;12.40;102225.00;;;;10529297;28;20231;-75
2021/05/29 23:03:33;;;;;;;12.90;10.53;;;;;12.30;102224.00;;;;10528705;28;20216;-75
2021/05/29 23:08:35;;;;;;;13.57;10.07;;;;;12.10;102220.00;;;;10494660;28;20212;-74
2021/05/29 23:13:37;;;;;;;17.00;11.33;;;;;12.00;102228.00;;;;10456106;28;20190;-74
2021/05/29 23:18:39;;;;;;;15.60;10.53;;;;;11.90;102225.00;;;;10469711;28;20521;-75
2021/05/29 23:23:41;;;;;;;16.40;11.53;;;;;11.80;102231.00;;;;10480418;28;20197;-74
2021/05/29 23:28:42;;;;;;;14.73;11.67;;;;;11.80;102226.00;;;;10526988;28;20598;-74
2021/05/29 23:33:44;;;;;;;17.40;11.93;;;;;11.80;102240.00;;;;10493672;28;20232;-74
2021/05/29 23:38:46;;;;;;;16.77;12.33;;;;;11.70;102241.00;;;;10526953;28;20238;-74
2021/05/29 23:43:48;;;;;;;16.63;12.27;;;;;11.60;102230.00;;;;10482369;28;20683;-74
2021/05/29 23:48:50;;;;;;;15.67;12.40;;;;;11.50;102232.00;;;;10484936;28;20635;-74
2021/05/29 23:53:52;;;;;;;16.40;13.63;;;;;11.50;102236.00;;;;10461720;28;20187;-74
2021/05/29 23:58:56;;;;;;;21.20;14.43;;;;;11.40;102235.00;;;;10467680;28;20189;-74
